Time;durP1;ratioP1;P1;durP2;ratioP2;P2;SDS_P1;SDS_P2;PMS_P1;PMS_P2;Temp;Humidity;BMP_temperature;BMP_pressure;BME280_temperature;BME280_humidity;BME280_pressure;Samples;Min_cycle;Max_cycle;Signal;HPM_P1;HPM_P2
2022/07/09 00:01:35;;;;;;;647.70;436.48;;;;;;;-140.79;100.00;63287.88;4999817;28;20115;-51
2022/07/09 00:04:00;;;;;;;628.35;417.08;;;;;;;-140.79;100.00;63287.88;5001666;28;20514;-51
2022/07/09 00:06:26;;;;;;;656.45;447.52;;;;;;;-140.79;100.00;63287.88;4995937;28;20026;-51
2022/07/09 00:08:51;;;;;;;646.47;436.30;;;;;;;-140.79;100.00;63287.88;4999995;28;20048;-51
2022/07/09 00:11:17;;;;;;;643.28;430.10;;;;;;;-140.79;100.00;63287.88;4997242;28;20026;-51
2022/07/09 00:13:42;;;;;;;647.45;438.80;;;;;;;-140.79;100.00;63287.88;4999351;28;20123;-51
2022/07/09 00:16:08;;;;;;;644.20;436.55;;;;;;;-140.79;100.00;63287.88;4999860;28;20041;-57
2022/07/09 00:18:33;;;;;;;636.50;429.77;;;;;;;-140.79;100.00;63287.88;5002017;28;20029;-52
2022/07/09 00:20:59;;;;;;;591.60;374.00;;;;;;;-140.79;100.00;63287.88;5002825;28;20034;-51
2022/07/09 00:23:24;;;;;;;595.50;379.23;;;;;;;-140.79;100.00;63287.88;4998606;28;20092;-52
2022/07/09 00:25:50;;;;;;;619.10;403.55;;;;;;;-140.79;100.00;63287.88;5001095;28;20690;-50
2022/07/09 00:28:15;;;;;;;644.55;435.58;;;;;;;-140.79;100.00;63287.88;5002206;28;20018;-50
2022/07/09 00:30:41;;;;;;;669.28;471.95;;;;;;;-140.79;100.00;63287.88;4999753;28;20022;-50
2022/07/09 00:33:06;;;;;;;702.55;507.77;;;;;;;-140.79;100.00;63287.88;4981341;28;20037;-51
2022/07/09 00:35:32;;;;;;;704.40;508.02;;;;;;;-140.79;100.00;63287.88;4999276;28;20046;-51
2022/07/09 00:37:57;;;;;;;705.80;511.02;;;;;;;-140.79;100.00;63287.88;4996119;28;20060;-51
2022/07/09 00:40:23;;;;;;;703.60;511.73;;;;;;;-140.79;100.00;63287.88;5000117;28;20036;-53
2022/07/09 00:42:48;;;;;;;698.20;499.00;;;;;;;-140.79;100.00;63287.88;4998828;28;20709;-51
2022/07/09 00:45:17;;;;;;;685.55;488.33;;;;;;;-140.79;100.00;63287.88;4999741;28;20100;-51
2022/07/09 00:47:42;;;;;;;687.38;489.05;;;;;;;-140.79;100.00;63287.88;4997287;28;20030;-51
2022/07/09 00:50:08;;;;;;;683.53;489.25;;;;;;;-140.79;100.00;63287.88;5000978;28;20068;-51
2022/07/09 00:52:34;;;;;;;714.28;525.20;;;;;;;-140.79;100.00;63287.88;4975296;28;20022;-51
2022/07/09 00:55:00;;;;;;;713.75;526.90;;;;;;;-140.79;100.00;63287.88;4997107;28;20022;-50
2022/07/09 00:57:25;;;;;;;748.72;567.00;;;;;;;-140.79;100.00;63287.88;5000670;28;20478;-51
2022/07/09 00:59:51;;;;;;;737.38;553.63;;;;;;;-140.79;100.00;63287.88;4968804;28;20057;-50
2022/07/09 01:02:16;;;;;;;741.90;555.60;;;;;;;-140.79;100.00;63287.88;4997178;28;20025;-51
2022/07/09 01:04:41;;;;;;;721.75;532.63;;;;;;;-140.79;100.00;63287.88;4964575;28;20034;-51
2022/07/09 01:07:07;;;;;;;690.78;491.83;;;;;;;-140.79;100.00;63287.88;4999561;28;20014;-50
2022/07/09 01:09:32;;;;;;;700.00;505.77;;;;;;;-140.79;100.00;63287.88;4999160;28;20033;-51
2022/07/09 01:11:58;;;;;;;692.00;499.35;;;;;;;-140.79;100.00;63287.88;5001478;28;20444;-51
2022/07/09 01:14:23;;;;;;;688.70;488.30;;;;;;;-140.79;100.00;63287.88;4997505;28;20855;-52
2022/07/09 01:16:57;;;;;;;704.08;507.00;;;;;;;-140.79;100.00;63287.88;4978940;28;20045;-51
2022/07/09 01:19:22;;;;;;;725.67;538.80;;;;;;;-140.79;100.00;63287.88;5002313;28;20103;-52
2022/07/09 01:21:48;;;;;;;780.05;609.30;;;;;;;-140.79;100.00;63287.88;4997878;28;20046;-51
2022/07/09 01:24:13;;;;;;;774.08;602.17;;;;;;;-140.79;100.00;63287.88;4999490;28;20465;-50
2022/07/09 01:26:39;;;;;;;771.72;600.28;;;;;;;-140.79;100.00;63287.88;4996991;28;20045;-52
2022/07/09 01:29:04;;;;;;;739.30;554.72;;;;;;;-140.79;100.00;63287.88;4980973;28;20036;-52
2022/07/09 01:31:30;;;;;;;734.28;548.42;;;;;;;-140.79;100.00;63287.88;4994261;28;20037;-52
2022/07/09 01:33:55;;;;;;;731.75;546.20;;;;;;;-140.79;100.00;63287.88;4998959;28;20480;-52
2022/07/09 01:36:20;;;;;;;721.63;529.50;;;;;;;-140.79;100.00;63287.88;4995733;28;20045;-51
2022/07/09 01:38:46;;;;;;;758.05;582.83;;;;;;;-140.79;100.00;63287.88;4994598;28;20021;-52
2022/07/09 01:41:11;;;;;;;770.47;600.58;;;;;;;-140.79;100.00;63287.88;4998801;28;20525;-52
2022/07/09 01:43:37;;;;;;;776.42;608.25;;;;;;;-140.79;100.00;63287.88;4979306;28;20037;-52
2022/07/09 01:46:02;;;;;;;802.38;643.70;;;;;;;-140.79;100.00;63287.88;4999319;28;20074;-52
2022/07/09 01:48:29;;;;;;;867.40;743.40;;;;;;;-140.79;100.00;63287.88;5001441;28;20053;-51
2022/07/09 01:50:54;;;;;;;1019.10;871.47;;;;;;;-140.79;100.00;63287.88;4997286;28;20036;-52
2022/07/09 01:53:20;;;;;;;645.55;440.52;;;;;;;-140.79;100.00;63287.88;5001612;28;20026;-51
2022/07/09 01:55:46;;;;;;;610.42;398.00;;;;;;;-140.79;100.00;63287.88;4998277;28;20034;-51
2022/07/09 01:58:11;;;;;;;605.50;390.05;;;;;;;-140.79;100.00;63287.88;4999811;28;20030;-51
2022/07/09 02:00:37;;;;;;;606.38;391.42;;;;;;;-140.79;100.00;63287.88;4999718;28;20049;-51
2022/07/09 02:03:02;;;;;;;605.88;393.73;;;;;;;-140.79;100.00;63287.88;4979300;28;20099;-52
2022/07/09 02:05:29;;;;;;;624.58;413.50;;;;;;;-140.79;100.00;63287.88;4997605;28;20037;-52
2022/07/09 02:07:54;;;;;;;619.80;408.13;;;;;;;-140.79;100.00;63287.88;4999104;28;20026;-52
2022/07/09 02:10:20;;;;;;;616.22;404.50;;;;;;;-140.79;100.00;63287.88;4998890;28;20029;-53
2022/07/09 02:12:46;;;;;;;607.70;391.45;;;;;;;-140.79;100.00;63287.88;4997664;28;20033;-52
2022/07/09 02:15:12;;;;;;;605.58;390.95;;;;;;;-140.79;100.00;63287.88;4978478;28;20038;-52
2022/07/09 02:17:38;;;;;;;601.67;385.67;;;;;;;-140.79;100.00;63287.88;4993358;28;20041;-52
2022/07/09 02:20:04;;;;;;;605.97;389.38;;;;;;;-140.79;100.00;63287.88;4999674;28;20033;-52
2022/07/09 02:22:29;;;;;;;594.40;378.27;;;;;;;-140.79;100.00;63287.88;4997251;28;20018;-52
2022/07/09 02:24:55;;;;;;;591.00;375.02;;;;;;;-140.79;100.00;63287.88;4981816;28;20029;-52
2022/07/09 02:27:20;;;;;;;593.65;376.50;;;;;;;-140.79;100.00;63287.88;4997968;28;20037;-52
2022/07/09 02:29:46;;;;;;;597.33;378.33;;;;;;;-140.79;100.00;63287.88;4997462;28;20310;-52
2022/07/09 02:32:11;;;;;;;588.63;370.13;;;;;;;-140.79;100.00;63287.88;4987361;28;20034;-51
2022/07/09 02:34:37;;;;;;;591.95;374.05;;;;;;;-140.79;100.00;63287.88;4999502;28;20026;-52
2022/07/09 02:37:04;;;;;;;603.78;386.23;;;;;;;-140.79;100.00;63287.88;4995363;28;20514;-52
2022/07/09 02:39:30;;;;;;;594.25;374.70;;;;;;;-140.79;100.00;63287.88;4980366;28;20480;-51
2022/07/09 02:41:55;;;;;;;597.03;380.10;;;;;;;-140.79;100.00;63287.88;4998070;28;20040;-52
2022/07/09 02:44:21;;;;;;;584.55;367.75;;;;;;;-140.79;100.00;63287.88;4996551;28;20025;-52
2022/07/09 02:46:46;;;;;;;550.05;334.30;;;;;;;-140.79;100.00;63287.88;4995893;28;20057;-52
2022/07/09 02:49:12;;;;;;;585.85;368.70;;;;;;;-140.79;100.00;63287.88;4994613;28;20041;-52
2022/07/09 02:51:37;;;;;;;587.33;371.20;;;;;;;-140.79;100.00;63287.88;4994131;28;20030;-51
2022/07/09 02:54:03;;;;;;;585.83;367.83;;;;;;;-140.79;100.00;63287.88;4998755;28;20030;-52
2022/07/09 02:56:30;;;;;;;591.22;371.77;;;;;;;-140.79;100.00;63287.88;4994242;28;20455;-51
2022/07/09 02:58:56;;;;;;;602.63;386.52;;;;;;;-140.79;100.00;63287.88;4997424;28;20121;-50
2022/07/09 03:01:21;;;;;;;592.05;377.20;;;;;;;-140.79;100.00;63287.88;4999556;28;20029;-51
2022/07/09 03:03:46;;;;;;;597.38;382.45;;;;;;;-140.79;100.00;63287.88;4997173;28;20026;-51
2022/07/09 03:06:12;;;;;;;605.00;388.77;;;;;;;-140.79;100.00;63287.88;4988546;28;20704;-51
2022/07/09 03:08:38;;;;;;;597.88;383.52;;;;;;;-140.79;100.00;63287.88;4998244;28;20030;-51
2022/07/09 03:11:06;;;;;;;591.50;372.58;;;;;;;-140.79;100.00;63287.88;4995901;28;20053;-51
2022/07/09 03:13:35;;;;;;;595.97;379.48;;;;;;;-140.79;100.00;63287.88;4993872;28;20062;-51
2022/07/09 03:16:00;;;;;;;592.42;371.50;;;;;;;-140.79;100.00;63287.88;4997642;28;20022;-51
2022/07/09 03:18:26;;;;;;;543.15;328.00;;;;;;;-140.79;100.00;63287.88;4996844;28;20053;-51
2022/07/09 03:20:51;;;;;;;572.22;352.92;;;;;;;-140.79;100.00;63287.88;4997268;28;20046;-51
2022/07/09 03:23:17;;;;;;;592.78;376.58;;;;;;;-140.79;100.00;63287.88;4998255;28;20548;-51
2022/07/09 03:25:42;;;;;;;591.92;374.20;;;;;;;-140.79;100.00;63287.88;4996494;28;20026;-50
2022/07/09 03:28:09;;;;;;;588.40;374.85;;;;;;;-140.79;100.00;63287.88;4998255;28;20021;-51
2022/07/09 03:30:34;;;;;;;596.40;379.40;;;;;;;-140.79;100.00;63287.88;4993101;28;20033;-51
2022/07/09 03:33:00;;;;;;;605.00;390.00;;;;;;;-140.79;100.00;63287.88;4997415;28;20207;-52
2022/07/09 03:35:25;;;;;;;600.13;383.58;;;;;;;-140.79;100.00;63287.88;4996581;28;20044;-50
2022/07/09 03:37:51;;;;;;;612.83;399.05;;;;;;;-140.79;100.00;63287.88;4961217;28;20018;-50
2022/07/09 03:40:16;;;;;;;609.38;393.08;;;;;;;-140.79;100.00;63287.88;4995416;28;20032;-51
2022/07/09 03:42:42;;;;;;;618.05;403.15;;;;;;;-140.79;100.00;63287.88;4993053;28;20057;-51
2022/07/09 03:45:08;;;;;;;617.03;403.02;;;;;;;-140.79;100.00;63287.88;4996517;28;20508;-50
2022/07/09 03:47:33;;;;;;;607.72;390.65;;;;;;;-140.79;100.00;63287.88;4989670;28;20621;-51
2022/07/09 03:49:58;;;;;;;602.88;383.67;;;;;;;-140.79;100.00;63287.88;4994931;28;20037;-51
2022/07/09 03:52:24;;;;;;;602.08;386.48;;;;;;;-140.79;100.00;63287.88;4995079;28;21368;-51
2022/07/09 03:54:49;;;;;;;610.28;396.08;;;;;;;-140.79;100.00;63287.88;4996992;28;20117;-51
2022/07/09 03:57:15;;;;;;;614.85;400.63;;;;;;;-140.79;100.00;63287.88;4991543;28;20691;-51
2022/07/09 03:59:40;;;;;;;620.35;407.98;;;;;;;-140.79;100.00;63287.88;4996083;28;20025;-51
2022/07/09 04:02:06;;;;;;;605.60;388.67;;;;;;;-140.79;100.00;63287.88;4994996;28;20026;-51
2022/07/09 04:04:31;;;;;;;600.40;383.45;;;;;;;-140.79;100.00;63287.88;4990521;28;20029;-51
2022/07/09 04:06:57;;;;;;;607.00;392.13;;;;;;;-140.79;100.00;63287.88;4981294;28;20080;-51
2022/07/09 04:09:22;;;;;;;602.03;387.88;;;;;;;-140.79;100.00;63287.88;4983923;28;20052;-51
2022/07/09 04:11:48;;;;;;;532.63;320.83;;;;;;;-140.79;100.00;63287.88;4980844;28;20066;-52
2022/07/09 04:14:16;;;;;;;544.53;329.85;;;;;;;-140.79;100.00;63287.88;4984846;28;20031;-51
2022/07/09 04:16:41;;;;;;;554.70;342.50;;;;;;;-140.79;100.00;63287.88;4983821;28;20524;-51
2022/07/09 04:19:07;;;;;;;539.00;327.42;;;;;;;-140.79;100.00;63287.88;4982825;28;20030;-51
2022/07/09 04:21:33;;;;;;;548.67;333.83;;;;;;;-140.79;100.00;63287.88;4965440;28;20057;-51
2022/07/09 04:23:58;;;;;;;542.63;328.63;;;;;;;-140.79;100.00;63287.88;4983882;28;20184;-52
2022/07/09 04:26:24;;;;;;;538.83;327.00;;;;;;;-140.79;100.00;63287.88;4981101;28;20513;-51
2022/07/09 04:28:49;;;;;;;540.55;328.80;;;;;;;-140.79;100.00;63287.88;4981065;28;20716;-51
2022/07/09 04:31:15;;;;;;;548.45;333.92;;;;;;;-140.79;100.00;63287.88;4980951;28;20022;-51
2022/07/09 04:33:42;;;;;;;543.05;330.55;;;;;;;-140.79;100.00;63287.88;4982087;28;20042;-51
2022/07/09 04:36:08;;;;;;;534.47;321.38;;;;;;;-140.79;100.00;63287.88;4985629;28;20026;-52
2022/07/09 04:38:33;;;;;;;537.60;324.20;;;;;;;-140.79;100.00;63287.88;4987224;28;20140;-51
2022/07/09 04:40:59;;;;;;;523.05;311.48;;;;;;;-140.79;100.00;63287.88;4983970;28;20018;-51
2022/07/09 04:43:24;;;;;;;518.42;310.15;;;;;;;-140.79;100.00;63287.88;4980098;28;20029;-51
2022/07/09 04:45:50;;;;;;;533.95;319.98;;;;;;;-140.79;100.00;63287.88;4982974;28;20521;-51
2022/07/09 04:48:15;;;;;;;528.85;314.92;;;;;;;-140.79;100.00;63287.88;4989061;28;20037;-50
2022/07/09 04:50:41;;;;;;;521.33;311.25;;;;;;;-140.79;100.00;63287.88;4989670;28;20100;-51
2022/07/09 04:53:06;;;;;;;532.05;319.75;;;;;;;-140.79;100.00;63287.88;4983557;28;20254;-51
2022/07/09 04:55:32;;;;;;;527.70;317.33;;;;;;;-140.79;100.00;63287.88;4987555;28;20026;-50
2022/07/09 04:57:57;;;;;;;473.42;269.52;;;;;;;-140.79;100.00;63287.88;4990735;28;20018;-51
2022/07/09 05:00:23;;;;;;;442.27;244.48;;;;;;;-140.79;100.00;63287.88;4987827;28;20034;-51
2022/07/09 05:02:48;;;;;;;475.83;271.95;;;;;;;-140.79;100.00;63287.88;4985696;28;20039;-50
2022/07/09 05:05:14;;;;;;;469.27;267.25;;;;;;;-140.79;100.00;63287.88;4985101;28;20031;-51
2022/07/09 05:07:41;;;;;;;460.88;259.75;;;;;;;-140.79;100.00;63287.88;4986415;28;20425;-51
2022/07/09 05:10:07;;;;;;;451.08;250.80;;;;;;;-140.79;100.00;63287.88;4970549;28;20652;-52
2022/07/09 05:12:32;;;;;;;453.27;252.65;;;;;;;-140.79;100.00;63287.88;4999301;28;20022;-52
2022/07/09 05:14:58;;;;;;;441.35;245.13;;;;;;;-140.79;100.00;63287.88;4996962;28;20440;-52
2022/07/09 05:17:23;;;;;;;443.70;245.73;;;;;;;-140.79;100.00;63287.88;4997371;28;20075;-53
2022/07/09 05:19:49;;;;;;;445.23;247.88;;;;;;;-140.79;100.00;63287.88;4996346;28;20026;-53
2022/07/09 05:22:15;;;;;;;448.15;250.20;;;;;;;-140.79;100.00;63287.88;5000420;28;20025;-52
2022/07/09 05:24:40;;;;;;;445.52;246.57;;;;;;;-140.79;100.00;63287.88;4997118;28;21123;-52
2022/07/09 05:27:06;;;;;;;457.73;255.60;;;;;;;-140.79;100.00;63287.88;4980086;28;20021;-51
2022/07/09 05:29:32;;;;;;;466.20;261.42;;;;;;;-140.79;100.00;63287.88;5000589;28;20034;-50
2022/07/09 05:31:57;;;;;;;461.52;258.98;;;;;;;-140.79;100.00;63287.88;4978581;28;20025;-52
2022/07/09 05:34:23;;;;;;;482.65;273.30;;;;;;;-140.79;100.00;63287.88;4998621;28;20057;-52
2022/07/09 05:36:51;;;;;;;488.50;280.58;;;;;;;-140.79;100.00;63287.88;4998343;28;20046;-53
2022/07/09 05:39:17;;;;;;;504.70;295.92;;;;;;;-140.79;100.00;63287.88;4996329;28;20014;-51
2022/07/09 05:41:42;;;;;;;518.10;308.17;;;;;;;-140.79;100.00;63287.88;4999695;28;20115;-52
2022/07/09 05:44:08;;;;;;;533.05;319.85;;;;;;;-140.79;100.00;63287.88;4996403;28;20157;-52
2022/07/09 05:46:33;;;;;;;458.98;255.60;;;;;;;-140.79;100.00;63287.88;4998759;28;20544;-52
2022/07/09 05:48:59;;;;;;;458.67;257.15;;;;;;;-140.79;100.00;63287.88;4996798;28;20211;-52
2022/07/09 05:51:24;;;;;;;469.30;264.50;;;;;;;-140.79;100.00;63287.88;4996479;28;20113;-52
2022/07/09 05:53:50;;;;;;;467.50;265.38;;;;;;;-140.79;100.00;63287.88;4994922;28;20131;-52
2022/07/09 05:56:15;;;;;;;493.02;280.30;;;;;;;-140.79;100.00;63287.88;4998636;28;20022;-52
2022/07/09 05:58:41;;;;;;;472.90;269.10;;;;;;;-140.79;100.00;63287.88;5000577;28;20060;-51
2022/07/09 06:01:06;;;;;;;473.38;266.80;;;;;;;-140.79;100.00;63287.88;4998436;28;20548;-52
2022/07/09 06:03:32;;;;;;;485.05;279.00;;;;;;;-140.79;100.00;63287.88;4980135;28;20122;-52
2022/07/09 06:05:58;;;;;;;527.10;315.77;;;;;;;-140.79;100.00;63287.88;4996259;28;20152;-52
2022/07/09 06:08:24;;;;;;;526.88;316.58;;;;;;;-140.79;100.00;63287.88;4998481;28;20535;-52
2022/07/09 06:10:50;;;;;;;545.10;328.80;;;;;;;-140.79;100.00;63287.88;4997288;28;20122;-52
2022/07/09 06:13:15;;;;;;;548.53;331.20;;;;;;;-140.79;100.00;63287.88;4998609;28;20097;-51
2022/07/09 06:15:41;;;;;;;553.22;335.00;;;;;;;-140.79;100.00;63287.88;4996559;28;20018;-53
2022/07/09 06:18:06;;;;;;;554.22;338.45;;;;;;;-140.79;100.00;63287.88;4997166;28;20036;-50
2022/07/09 06:20:32;;;;;;;554.70;337.95;;;;;;;-140.79;100.00;63287.88;4999766;28;20412;-51
2022/07/09 06:22:57;;;;;;;550.17;334.33;;;;;;;-140.79;100.00;63287.88;4996563;28;20489;-51
2022/07/09 06:25:23;;;;;;;542.35;327.00;;;;;;;-140.79;100.00;63287.88;4998084;28;20026;-52
2022/07/09 06:27:48;;;;;;;536.80;322.25;;;;;;;-140.79;100.00;63287.88;5000362;28;20006;-51
2022/07/09 06:30:14;;;;;;;553.30;337.42;;;;;;;-140.79;100.00;63287.88;4999095;28;20040;-51
2022/07/09 06:32:39;;;;;;;551.40;334.42;;;;;;;-140.79;100.00;63287.88;4995419;28;20598;-53
2022/07/09 06:35:05;;;;;;;556.15;335.35;;;;;;;-140.79;100.00;63287.88;4997844;28;20025;-52
2022/07/09 06:37:31;;;;;;;559.50;339.77;;;;;;;-140.79;100.00;63287.88;4998163;28;20025;-52
2022/07/09 06:39:59;;;;;;;554.17;336.08;;;;;;;-140.79;100.00;63287.88;4994718;28;20029;-52
2022/07/09 06:42:24;;;;;;;550.17;330.58;;;;;;;-140.79;100.00;63287.88;4993823;28;20060;-52
2022/07/09 06:44:50;;;;;;;547.22;329.58;;;;;;;-140.79;100.00;63287.88;4987451;28;20038;-52
2022/07/09 06:47:15;;;;;;;538.55;322.38;;;;;;;-140.79;100.00;63287.88;4994823;28;20045;-52
2022/07/09 06:49:41;;;;;;;545.38;328.13;;;;;;;-140.79;100.00;63287.88;4961421;28;20145;-52
2022/07/09 06:52:07;;;;;;;541.78;323.40;;;;;;;-140.79;100.00;63287.88;4980207;28;20036;-52
2022/07/09 06:54:33;;;;;;;544.13;328.05;;;;;;;-140.79;100.00;63287.88;4973083;28;20552;-52
2022/07/09 06:56:59;;;;;;;537.05;321.77;;;;;;;-140.79;100.00;63287.88;4997808;28;20105;-52
2022/07/09 06:59:24;;;;;;;542.92;324.08;;;;;;;-140.79;100.00;63287.88;4992555;28;20080;-52
2022/07/09 07:01:50;;;;;;;540.53;324.13;;;;;;;-140.79;100.00;63287.88;4993835;28;20037;-52
2022/07/09 07:04:16;;;;;;;528.70;313.17;;;;;;;-140.79;100.00;63287.88;4978442;28;20489;-53
2022/07/09 07:06:42;;;;;;;533.42;316.77;;;;;;;-140.79;100.00;63287.88;4983945;28;21394;-52
2022/07/09 07:09:08;;;;;;;509.90;298.63;;;;;;;-140.79;100.00;63287.88;4985475;28;20461;-52
2022/07/09 07:11:33;;;;;;;523.92;309.00;;;;;;;-140.79;100.00;63287.88;4985105;28;20591;-52
2022/07/09 07:13:59;;;;;;;544.80;319.80;;;;;;;-140.79;100.00;63287.88;4982662;28;20081;-53
2022/07/09 07:16:24;;;;;;;506.92;295.08;;;;;;;-140.79;100.00;63287.88;4991431;28;20037;-53
2022/07/09 07:18:50;;;;;;;524.30;307.77;;;;;;;-140.79;100.00;63287.88;4976599;28;20132;-52
2022/07/09 07:21:15;;;;;;;510.10;298.58;;;;;;;-140.79;100.00;63287.88;4995263;28;20528;-52
2022/07/09 07:23:41;;;;;;;514.00;299.05;;;;;;;-140.79;100.00;63287.88;4994681;28;20112;-52
2022/07/09 07:26:06;;;;;;;512.15;299.92;;;;;;;-140.79;100.00;63287.88;4996060;28;20037;-52
2022/07/09 07:28:32;;;;;;;504.95;293.65;;;;;;;-140.79;100.00;63287.88;4994333;28;20029;-53
2022/07/09 07:30:57;;;;;;;498.88;283.95;;;;;;;-140.79;100.00;63287.88;4994129;28;20065;-52
2022/07/09 07:33:23;;;;;;;497.15;285.23;;;;;;;-140.79;100.00;63287.88;4977285;28;20054;-52
2022/07/09 07:35:48;;;;;;;493.30;283.55;;;;;;;-140.79;100.00;63287.88;4992165;28;20098;-52
2022/07/09 07:38:14;;;;;;;503.40;290.75;;;;;;;-140.79;100.00;63287.88;4994839;28;20655;-52
2022/07/09 07:40:39;;;;;;;495.40;283.25;;;;;;;-140.79;100.00;63287.88;4996996;28;20084;-52
2022/07/09 07:43:05;;;;;;;493.83;283.17;;;;;;;-140.79;100.00;63287.88;4987268;28;20062;-51
2022/07/09 07:45:31;;;;;;;509.50;296.30;;;;;;;-140.79;100.00;63287.88;4990782;28;20037;-52
2022/07/09 07:47:56;;;;;;;500.92;289.50;;;;;;;-140.79;100.00;63287.88;4993015;28;20037;-52
2022/07/09 07:50:22;;;;;;;495.52;286.30;;;;;;;-140.79;100.00;63287.88;4996991;28;20894;-52
2022/07/09 07:52:48;;;;;;;491.33;282.48;;;;;;;-140.79;100.00;63287.88;4994941;28;20515;-52
2022/07/09 07:55:13;;;;;;;506.58;293.40;;;;;;;-140.79;100.00;63287.88;4996160;28;20014;-52
2022/07/09 07:57:39;;;;;;;510.20;298.73;;;;;;;-140.79;100.00;63287.88;4996736;28;20037;-52
2022/07/09 08:00:05;;;;;;;502.38;291.88;;;;;;;-140.79;100.00;63287.88;4998704;28;20091;-52
2022/07/09 08:02:31;;;;;;;514.20;300.40;;;;;;;-140.79;100.00;63287.88;4995809;28;20088;-52
2022/07/09 08:04:56;;;;;;;520.80;308.60;;;;;;;-140.79;100.00;63287.88;4993399;28;20473;-52
2022/07/09 08:07:22;;;;;;;511.30;299.77;;;;;;;-140.79;100.00;63287.88;4995349;28;20014;-52
2022/07/09 08:09:47;;;;;;;517.25;303.20;;;;;;;-140.79;100.00;63287.88;4994427;28;20519;-51
2022/07/09 08:12:13;;;;;;;513.47;301.70;;;;;;;-140.79;100.00;63287.88;4998444;28;20030;-52
2022/07/09 08:14:39;;;;;;;505.45;293.40;;;;;;;-140.79;100.00;63287.88;4999931;28;20568;-52
2022/07/09 08:17:05;;;;;;;509.25;296.10;;;;;;;-140.79;100.00;63287.88;4996081;28;20034;-53
2022/07/09 08:19:30;;;;;;;510.35;296.92;;;;;;;-140.79;100.00;63287.88;4995971;28;20030;-52
2022/07/09 08:21:56;;;;;;;513.22;295.58;;;;;;;-140.79;100.00;63287.88;4996261;28;20049;-52
2022/07/09 08:24:22;;;;;;;519.95;303.85;;;;;;;-140.79;100.00;63287.88;5002281;28;20037;-52
2022/07/09 08:26:47;;;;;;;517.17;302.27;;;;;;;-140.79;100.00;63287.88;4997762;28;20481;-52
2022/07/09 08:29:13;;;;;;;515.90;297.80;;;;;;;-140.79;100.00;63287.88;4997469;28;20424;-53
2022/07/09 08:31:38;;;;;;;526.63;306.33;;;;;;;-140.79;100.00;63287.88;4998491;28;20044;-53
2022/07/09 08:34:04;;;;;;;532.53;314.98;;;;;;;-140.79;100.00;63287.88;4997691;28;20630;-53
2022/07/09 08:36:29;;;;;;;546.03;326.77;;;;;;;-140.79;100.00;63287.88;5001138;28;20026;-53
2022/07/09 08:38:55;;;;;;;532.60;316.83;;;;;;;-140.79;100.00;63287.88;4999980;28;20045;-53
2022/07/09 08:41:20;;;;;;;531.30;315.65;;;;;;;-140.79;100.00;63287.88;5000089;28;20045;-51
2022/07/09 08:43:50;;;;;;;538.75;318.80;;;;;;;-140.79;100.00;63287.88;4973001;28;20158;-52
2022/07/09 08:46:15;;;;;;;522.83;305.00;;;;;;;-140.79;100.00;63287.88;4999647;28;20054;-51
2022/07/09 08:48:40;;;;;;;526.40;308.40;;;;;;;-140.79;100.00;63287.88;4964336;28;20042;-52
2022/07/09 08:51:06;;;;;;;524.95;308.30;;;;;;;-140.79;100.00;63287.88;4959678;28;20092;-51
2022/07/09 08:53:31;;;;;;;526.90;311.00;;;;;;;-140.79;100.00;63287.88;4982136;28;20044;-51
2022/07/09 08:55:57;;;;;;;523.17;304.60;;;;;;;-140.79;100.00;63287.88;4999095;28;20091;-51
2022/07/09 08:58:23;;;;;;;538.65;320.50;;;;;;;-140.79;100.00;63287.88;5000877;28;20018;-51
2022/07/09 09:00:49;;;;;;;527.53;310.17;;;;;;;-140.79;100.00;63287.88;5000569;28;20034;-52
2022/07/09 09:03:14;;;;;;;529.63;311.55;;;;;;;-140.79;100.00;63287.88;4998835;28;20025;-51
2022/07/09 09:05:40;;;;;;;537.10;318.17;;;;;;;-140.79;100.00;63287.88;4998957;28;20057;-52
2022/07/09 09:08:22;;;;;;;534.28;317.42;;;;;;;-140.79;100.00;63287.88;4979312;28;20033;-52
2022/07/09 09:10:47;;;;;;;508.38;293.17;;;;;;;-140.79;100.00;63287.88;4997787;28;20034;-52
2022/07/09 09:13:14;;;;;;;516.80;298.77;;;;;;;-140.79;100.00;63287.88;4997550;28;20438;-52
2022/07/09 09:15:40;;;;;;;513.63;296.15;;;;;;;-140.79;100.00;63287.88;4974340;28;20101;-52
2022/07/09 09:18:05;;;;;;;524.72;304.17;;;;;;;-140.79;100.00;63287.88;4979889;28;20040;-52
2022/07/09 09:20:31;;;;;;;533.17;309.80;;;;;;;-140.79;100.00;63287.88;5000222;28;20484;-52
2022/07/09 09:23:02;;;;;;;530.53;310.65;;;;;;;-140.79;100.00;63287.88;4992011;28;20025;-52
2022/07/09 09:25:27;;;;;;;522.40;305.67;;;;;;;-140.79;100.00;63287.88;5000483;28;20071;-52
2022/07/09 09:27:59;;;;;;;518.45;301.20;;;;;;;-140.79;100.00;63287.88;4997901;28;20025;-52
2022/07/09 09:30:27;;;;;;;508.15;293.45;;;;;;;-140.79;100.00;63287.88;4994723;28;20049;-51
2022/07/09 09:32:57;;;;;;;511.35;294.92;;;;;;;-140.79;100.00;63287.88;4980808;28;20040;-52
2022/07/09 09:35:26;;;;;;;506.33;290.85;;;;;;;-140.79;100.00;63287.88;4995836;28;20042;-52
2022/07/09 09:37:53;;;;;;;513.10;296.92;;;;;;;-140.79;100.00;63287.88;4994661;28;20025;-52
2022/07/09 09:40:18;;;;;;;525.58;308.75;;;;;;;-140.79;100.00;63287.88;4982318;28;20042;-52
2022/07/09 09:42:44;;;;;;;514.47;299.00;;;;;;;-140.79;100.00;63287.88;4997713;28;20030;-51
2022/07/09 09:45:11;;;;;;;515.78;298.67;;;;;;;-140.79;100.00;63287.88;4972611;28;20432;-52
2022/07/09 09:47:37;;;;;;;475.75;266.77;;;;;;;-140.79;100.00;63287.88;4969700;28;20356;-52
2022/07/09 09:50:03;;;;;;;506.90;293.73;;;;;;;-140.79;100.00;63287.88;4975408;28;20674;-53
2022/07/09 09:52:28;;;;;;;500.77;287.73;;;;;;;-140.79;100.00;63287.88;4978291;28;20049;-52
2022/07/09 09:54:54;;;;;;;503.75;289.98;;;;;;;-140.79;100.00;63287.88;4962138;28;20727;-52
2022/07/09 09:57:20;;;;;;;501.40;289.33;;;;;;;-140.79;100.00;63287.88;4960384;28;20505;-52
2022/07/09 09:59:46;;;;;;;499.80;289.13;;;;;;;-140.79;100.00;63287.88;4947605;28;20041;-51
2022/07/09 10:02:12;;;;;;;485.88;276.52;;;;;;;-140.79;100.00;63287.88;4977179;28;20027;-52
2022/07/09 10:04:38;;;;;;;499.90;286.52;;;;;;;-140.79;100.00;63287.88;4977860;28;20038;-51
2022/07/09 10:07:04;;;;;;;485.80;274.40;;;;;;;-140.79;100.00;63287.88;4977941;28;20026;-51
2022/07/09 10:09:29;;;;;;;491.08;281.80;;;;;;;-140.79;100.00;63287.88;4970837;28;20129;-52
2022/07/09 10:11:55;;;;;;;496.95;285.08;;;;;;;-140.79;100.00;63287.88;4969452;28;20061;-52
2022/07/09 10:14:24;;;;;;;514.75;299.02;;;;;;;-140.79;100.00;63287.88;4965794;28;20039;-52
2022/07/09 13:38:53;;;;;;;836.25;672.13;;;;;;;-140.79;100.00;63287.88;4499150;28;20585;-51
2022/07/09 13:41:19;;;;;;;841.40;688.75;;;;;;;-140.79;100.00;63287.88;5033287;28;20041;-50
2022/07/09 13:43:45;;;;;;;833.33;683.42;;;;;;;-140.79;100.00;63287.88;5041959;28;20491;-50
2022/07/09 13:46:11;;;;;;;860.00;713.35;;;;;;;-140.79;100.00;63287.88;5037367;28;20029;-50
2022/07/09 13:48:36;;;;;;;847.53;691.90;;;;;;;-140.79;100.00;63287.88;5034347;28;20102;-53
2022/07/09 13:51:02;;;;;;;844.10;686.50;;;;;;;-140.79;100.00;63287.88;5030807;28;20755;-52
2022/07/09 13:53:29;;;;;;;847.35;691.13;;;;;;;-140.79;100.00;63287.88;5040321;28;20037;-49
2022/07/09 13:55:55;;;;;;;830.47;671.35;;;;;;;-140.79;100.00;63287.88;5036992;28;20025;-51